Time;durP1;ratioP1;P1;durP2;ratioP2;P2;SDS_P1;SDS_P2;PMS_P1;PMS_P2;Temp;Humidity;BMP_temperature;BMP_pressure;BME280_temperature;BME280_humidity;BME280_pressure;Samples;Min_cycle;Max_cycle;Signal;HPM_P1;HPM_P2
2021/09/06 00:00:28;;;;;;;18.27;7.05;;;;;;;13.96;55.77;101789.90;1779121;80;20960;-61
2021/09/06 00:02:55;;;;;;;17.10;6.42;;;;;;;13.89;56.04;101788.34;1776387;80;21123;-61
2021/09/06 00:05:22;;;;;;;18.23;6.15;;;;;;;13.88;56.45;101787.94;1778955;80;20952;-61
2021/09/06 00:07:51;;;;;;;10.28;6.17;;;;;;;13.82;56.50;101793.05;1781300;80;20989;-61
2021/09/06 00:10:37;;;;;;;12.68;5.65;;;;;;;13.74;56.41;101793.28;1782000;80;21457;-62
2021/09/06 00:13:05;;;;;;;16.37;6.35;;;;;;;13.69;56.51;101792.55;1758826;80;20988;-61
2021/09/06 00:15:32;;;;;;;12.35;5.05;;;;;;;13.64;56.83;101795.87;1775808;80;21156;-62
2021/09/06 00:18:02;;;;;;;17.82;6.33;;;;;;;13.57;57.15;101799.66;1782813;79;21481;-61
2021/09/06 00:20:31;;;;;;;17.48;7.25;;;;;;;13.50;57.32;101798.09;1783278;79;20921;-62
2021/09/06 00:23:00;;;;;;;18.37;7.22;;;;;;;13.44;57.62;101795.12;1782967;79;20953;-62
2021/09/06 00:25:28;;;;;;;14.28;6.17;;;;;;;13.44;57.81;101797.36;1783342;79;21369;-61
2021/09/06 00:27:56;;;;;;;19.50;6.87;;;;;;;13.40;58.04;101796.11;1783542;79;20935;-62
2021/09/06 00:30:23;;;;;;;22.45;8.00;;;;;;;13.35;58.34;101794.89;1783446;80;20994;-62
2021/09/06 00:32:52;;;;;;;15.48;8.20;;;;;;;13.35;58.60;101798.07;1778030;79;21466;-62
2021/09/06 00:35:19;;;;;;;16.02;8.13;;;;;;;13.36;58.63;101798.00;1780832;80;21076;-62
2021/09/06 00:37:48;;;;;;;13.75;6.75;;;;;;;13.36;58.21;101807.43;1776863;80;22025;-61
2021/09/06 00:40:16;;;;;;;13.53;6.80;;;;;;;13.33;58.21;101803.48;1777607;80;21042;-61
2021/09/06 00:42:45;;;;;;;16.10;6.87;;;;;;;13.28;58.39;101800.95;1783329;79;21008;-60
2021/09/06 00:45:12;;;;;;;16.73;6.87;;;;;;;13.22;58.62;101800.25;1781573;80;21044;-61
2021/09/06 00:47:40;;;;;;;14.98;6.08;;;;;;;13.22;58.80;101797.55;1780402;80;20921;-61
2021/09/06 00:50:12;;;;;;;19.17;7.53;;;;;;;13.22;58.85;101801.59;1783381;79;21488;-61
2021/09/06 00:52:42;;;;;;;21.15;6.85;;;;;;;13.13;58.97;101804.95;1782852;80;21104;-61
2021/09/06 00:55:11;;;;;;;11.68;6.87;;;;;;;13.07;59.09;101804.27;1774491;80;20988;-61
2021/09/06 00:57:38;;;;;;;19.12;7.33;;;;;;;13.07;59.22;101808.31;1789211;80;20979;-62
2021/09/06 01:00:08;;;;;;;20.60;7.87;;;;;;;13.04;59.10;101812.86;1794086;80;21012;-62
2021/09/06 01:02:35;;;;;;;16.25;7.40;;;;;;;12.95;59.14;101809.55;1794424;78;20964;-61
2021/09/06 01:05:03;;;;;;;13.68;6.85;;;;;;;12.90;59.39;101809.66;1794463;78;21112;-61
2021/09/06 01:07:47;;;;;;;15.48;6.92;;;;;;;12.89;59.49;101811.94;1742359;81;21057;-61
2021/09/06 01:10:20;;;;;;;19.27;7.35;;;;;;;12.86;59.41;101812.02;1768737;79;21015;-62
2021/09/06 01:12:49;;;;;;;19.20;7.53;;;;;;;12.76;59.56;101814.08;1790379;79;21482;-60
2021/09/06 01:15:16;;;;;;;24.00;8.08;;;;;;;12.69;59.61;101811.12;1793978;80;21039;-61
2021/09/06 01:17:43;;;;;;;24.63;7.58;;;;;;;12.61;59.72;101810.88;1794342;80;21076;-61
2021/09/06 01:20:12;;;;;;;18.95;6.47;;;;;;;12.53;60.06;101810.20;1794163;78;21000;-62
2021/09/06 01:22:41;;;;;;;19.60;7.28;;;;;;;12.48;60.33;101816.14;1793993;79;20956;-61
2021/09/06 01:25:17;;;;;;;22.15;9.10;;;;;;;12.42;60.67;101814.52;1793143;79;21055;-62
2021/09/06 01:27:44;;;;;;;20.25;9.98;;;;;;;12.38;60.90;101811.94;1794643;80;20921;-61
2021/09/06 01:30:12;;;;;;;25.48;9.03;;;;;;;12.32;61.21;101819.24;1794094;80;21449;-61
2021/09/06 01:32:39;;;;;;;20.00;8.10;;;;;;;12.25;61.49;101813.58;1793222;80;21429;-61
2021/09/06 01:35:07;;;;;;;36.80;15.83;;;;;;;12.21;61.58;101817.27;1793647;80;21003;-61
2021/09/06 01:37:35;;;;;;;31.27;14.65;;;;;;;12.17;61.86;101815.58;1769180;80;21372;-61
2021/09/06 01:40:04;;;;;;;19.12;10.32;;;;;;;12.12;61.88;101813.47;1793999;79;21007;-61
2021/09/06 01:42:32;;;;;;;20.17;9.58;;;;;;;12.12;62.17;101820.20;1793940;80;21084;-62
2021/09/06 01:45:02;;;;;;;26.20;11.45;;;;;;;12.10;62.49;101821.56;1794036;79;21084;-61
2021/09/06 01:47:31;;;;;;;21.00;10.55;;;;;;;12.06;62.59;101820.36;1793736;80;20948;-61
2021/09/06 01:49:58;;;;;;;18.80;9.65;;;;;;;11.99;63.14;101825.82;1794115;80;21735;-62
2021/09/06 01:52:26;;;;;;;25.57;12.47;;;;;;;11.95;63.47;101829.51;1774151;80;21536;-62
2021/09/06 01:54:55;;;;;;;16.42;9.13;;;;;;;11.90;63.36;101825.58;1793658;79;21433;-61
2021/09/06 01:57:22;;;;;;;17.73;9.48;;;;;;;11.87;63.56;101828.81;1766381;80;21009;-61
2021/09/06 01:59:49;;;;;;;25.60;11.40;;;;;;;11.83;63.46;101824.44;1780535;80;20984;-61
2021/09/06 02:02:16;;;;;;;25.50;13.90;;;;;;;11.82;63.67;101828.02;1780059;79;21025;-60
2021/09/06 02:04:44;;;;;;;21.52;11.30;;;;;;;11.82;63.72;101819.95;1774465;79;21231;-61
2021/09/06 02:07:11;;;;;;;26.73;12.40;;;;;;;11.79;63.89;101818.69;1748582;80;21143;-61
2021/09/06 02:09:39;;;;;;;24.87;14.80;;;;;;;11.76;63.82;101825.03;1774583;80;21027;-61
2021/09/06 02:12:09;;;;;;;25.77;14.65;;;;;;;11.79;63.73;101826.74;1773002;80;21449;-61
2021/09/06 02:14:39;;;;;;;22.48;9.95;;;;;;;11.74;63.62;101830.91;1773936;80;20972;-61
2021/09/06 02:17:06;;;;;;;14.73;6.75;;;;;;;11.70;63.14;101832.77;1778787;80;21103;-61
2021/09/06 02:19:35;;;;;;;22.13;8.88;;;;;;;11.67;63.06;101832.83;1771320;81;21861;-61
2021/09/06 02:22:03;;;;;;;22.75;11.05;;;;;;;11.62;63.14;101837.44;1775061;80;22131;-61
2021/09/06 02:24:31;;;;;;;23.62;12.68;;;;;;;11.57;63.29;101843.34;1779948;79;20961;-61
2021/09/06 02:27:03;;;;;;;24.30;10.32;;;;;;;11.57;63.53;101850.05;1779175;80;21017;-62
2021/09/06 02:29:32;;;;;;;14.90;8.13;;;;;;;11.57;63.55;101846.92;1780297;79;21552;-61
2021/09/06 02:32:06;;;;;;;32.53;17.05;;;;;;;11.54;63.50;101844.31;1778791;80;21197;-61
2021/09/06 02:34:38;;;;;;;28.57;13.08;;;;;;;11.51;63.74;101832.73;1773664;80;21013;-60
2021/09/06 02:37:05;;;;;;;18.07;9.88;;;;;;;11.51;63.75;101840.80;1776566;79;21036;-61
2021/09/06 02:39:33;;;;;;;15.88;8.48;;;;;;;11.50;63.48;101839.03;1772780;80;20948;-62
2021/09/06 02:42:00;;;;;;;16.20;6.37;;;;;;;11.43;63.32;101853.94;1744922;80;21044;-61
2021/09/06 02:44:30;;;;;;;19.55;6.30;;;;;;;11.37;63.46;101852.70;1775435;79;21383;-61
2021/09/06 02:46:59;;;;;;;14.50;8.53;;;;;;;11.35;63.51;101846.95;1741421;80;21027;-62
2021/09/06 02:49:26;;;;;;;25.72;14.13;;;;;;;11.30;63.63;101851.06;1773809;80;21032;-61
2021/09/06 02:51:53;;;;;;;33.20;18.98;;;;;;;11.28;63.82;101852.91;1773740;80;21480;-61
2021/09/06 02:54:21;;;;;;;30.62;18.27;;;;;;;11.28;64.10;101855.59;1743384;80;21076;-61
2021/09/06 02:56:48;;;;;;;34.13;18.57;;;;;;;11.22;64.24;101861.09;1775694;79;21826;-63
2021/09/06 02:59:16;;;;;;;41.42;21.97;;;;;;;11.17;64.42;101866.54;1765183;81;21025;-62
2021/09/06 03:01:43;;;;;;;42.33;22.85;;;;;;;11.14;64.56;101859.42;1765212;81;21529;-62
2021/09/06 03:04:10;;;;;;;44.25;21.82;;;;;;;11.12;64.59;101863.07;1765225;81;21036;-62
2021/09/06 03:06:37;;;;;;;38.45;21.85;;;;;;;11.07;64.81;101864.48;1769990;80;21029;-60
2021/09/06 03:09:05;;;;;;;36.08;20.85;;;;;;;11.04;64.98;101868.58;1766514;79;21846;-61
2021/09/06 03:11:32;;;;;;;33.55;17.02;;;;;;;11.02;64.99;101862.36;1765796;81;21029;-61
2021/09/06 03:13:59;;;;;;;27.22;13.90;;;;;;;10.98;65.02;101864.67;1765611;81;21103;-61
2021/09/06 03:16:26;;;;;;;23.77;15.30;;;;;;;10.96;65.11;101864.69;1769535;81;21081;-61
2021/09/06 03:18:54;;;;;;;29.37;16.50;;;;;;;10.96;65.20;101866.51;1771864;79;21020;-54
2021/09/06 03:21:26;;;;;;;31.93;14.47;;;;;;;10.93;65.32;101872.80;1770787;79;21557;-56
2021/09/06 03:23:54;;;;;;;24.35;13.78;;;;;;;10.91;65.30;101873.73;1771701;81;21060;-55
2021/09/06 03:26:22;;;;;;;24.72;13.72;;;;;;;10.92;65.40;101876.41;1771803;79;21009;-54
2021/09/06 03:28:49;;;;;;;23.62;10.45;;;;;;;10.94;65.46;101881.72;1771856;79;21529;-54
2021/09/06 03:31:17;;;;;;;21.30;10.35;;;;;;;10.96;65.43;101878.59;1768764;79;21035;-56
2021/09/06 03:33:44;;;;;;;16.87;9.83;;;;;;;10.98;65.45;101883.47;1765076;80;21090;-56
2021/09/06 03:36:12;;;;;;;15.15;7.78;;;;;;;11.02;65.33;101885.17;1769019;80;21053;-55
2021/09/06 03:38:39;;;;;;;22.27;8.08;;;;;;;11.05;65.19;101899.87;1767698;81;21022;-56
2021/09/06 03:41:07;;;;;;;17.55;8.23;;;;;;;11.06;65.03;101900.30;1771839;81;21042;-55
2021/09/06 03:43:35;;;;;;;22.00;8.78;;;;;;;11.07;64.88;101900.72;1772214;79;20961;-56
2021/09/06 03:46:02;;;;;;;18.48;7.62;;;;;;;11.10;64.77;101903.34;1765473;79;20973;-56
2021/09/06 03:48:30;;;;;;;28.02;7.85;;;;;;;11.14;64.72;101902.84;1763131;81;20978;-54
2021/09/06 03:50:59;;;;;;;18.15;6.00;;;;;;;11.22;64.40;101906.72;1763158;80;21004;-55
2021/09/06 03:53:27;;;;;;;20.95;6.42;;;;;;;11.29;64.06;101905.24;1763274;81;21431;-55
2021/09/06 03:55:54;;;;;;;24.30;6.45;;;;;;;11.31;63.67;101910.56;1771267;81;21068;-56
2021/09/06 03:58:21;;;;;;;16.12;6.58;;;;;;;11.35;63.35;101908.71;1783552;79;21141;-55
2021/09/06 04:00:48;;;;;;;21.17;7.15;;;;;;;11.40;63.28;101910.40;1793641;80;21063;-56
2021/09/06 04:03:16;;;;;;;19.98;7.53;;;;;;;11.46;63.06;101915.64;1793028;79;21051;-55
2021/09/06 04:05:43;;;;;;;13.25;8.38;;;;;;;11.51;62.92;101911.97;1772559;80;21020;-55
2021/09/06 04:08:11;;;;;;;19.92;6.30;;;;;;;11.54;62.94;101921.30;1793128;79;21114;-56
2021/09/06 04:10:38;;;;;;;15.88;6.90;;;;;;;11.59;62.58;101925.67;1793372;80;21133;-56
2021/09/06 04:13:06;;;;;;;18.82;5.90;;;;;;;11.63;62.40;101921.13;1793447;80;21411;-56
2021/09/06 04:15:33;;;;;;;11.95;6.03;;;;;;;11.66;61.97;101926.88;1793173;80;21000;-55
2021/09/06 04:18:00;;;;;;;20.05;5.50;;;;;;;11.67;61.96;101916.11;1793274;79;21028;-55
2021/09/06 04:20:28;;;;;;;18.48;8.23;;;;;;;11.68;61.87;101916.54;1789745;80;21026;-54
2021/09/06 04:22:56;;;;;;;16.77;7.00;;;;;;;11.68;62.08;101923.26;1793613;80;21558;-54
2021/09/06 04:25:23;;;;;;;14.90;7.67;;;;;;;11.78;62.17;101928.42;1793129;78;21027;-55
2021/09/06 04:27:52;;;;;;;22.62;8.98;;;;;;;11.86;61.95;101927.34;1793669;79;21090;-55
2021/09/06 04:30:19;;;;;;;16.70;8.68;;;;;;;11.93;61.71;101931.23;1793463;80;21026;-55
2021/09/06 04:32:48;;;;;;;21.95;7.65;;;;;;;11.98;61.68;101930.22;1792964;79;20951;-55
2021/09/06 04:35:15;;;;;;;16.80;9.23;;;;;;;12.12;61.49;101930.42;1793383;80;22012;-55
2021/09/06 04:37:42;;;;;;;21.62;10.85;;;;;;;12.22;61.20;101936.00;1793369;80;21013;-55
2021/09/06 04:40:12;;;;;;;22.55;10.23;;;;;;;12.30;60.97;101933.13;1792917;79;21106;-54
2021/09/06 04:42:41;;;;;;;32.55;13.03;;;;;;;12.41;60.93;101936.91;1793562;79;21086;-55
2021/09/06 04:45:09;;;;;;;19.05;10.50;;;;;;;12.55;60.78;101938.83;1794178;79;21584;-54
2021/09/06 04:47:39;;;;;;;21.37;10.53;;;;;;;12.67;60.12;101936.30;1763209;80;21922;-55
2021/09/06 04:50:07;;;;;;;29.72;12.82;;;;;;;12.75;59.92;101943.70;1794183;80;21506;-56
2021/09/06 04:52:34;;;;;;;23.50;10.40;;;;;;;12.82;59.76;101944.44;1794367;80;21020;-56
2021/09/06 04:55:04;;;;;;;26.90;14.65;;;;;;;12.92;58.86;101942.84;1793893;80;21591;-56
2021/09/06 04:57:32;;;;;;;20.97;11.65;;;;;;;12.96;59.01;101943.21;1792350;80;21170;-56
2021/09/06 04:59:58;;;;;;;21.93;12.00;;;;;;;13.04;59.10;101935.36;1768684;80;21138;-56
2021/09/06 05:02:26;;;;;;;22.73;11.40;;;;;;;13.18;58.85;101937.67;1784136;79;21003;-56
2021/09/06 05:04:53;;;;;;;29.45;16.02;;;;;;;13.31;58.87;101941.37;1786042;79;21080;-55
2021/09/06 05:07:20;;;;;;;23.62;13.40;;;;;;;13.42;58.55;101939.27;1772772;80;21015;-55
2021/09/06 05:09:47;;;;;;;22.48;12.70;;;;;;;13.58;58.44;101941.09;1787139;80;21111;-54
2021/09/06 05:12:15;;;;;;;19.57;10.98;;;;;;;13.80;57.83;101943.62;1783924;80;21869;-55
2021/09/06 05:14:42;;;;;;;16.90;9.25;;;;;;;13.98;57.30;101933.63;1782400;80;20960;-55
2021/09/06 05:17:12;;;;;;;27.35;10.35;;;;;;;14.13;56.71;101934.97;1782118;80;20987;-55
2021/09/06 05:19:40;;;;;;;27.17;9.90;;;;;;;14.28;55.87;101943.52;1782099;80;21099;-55
2021/09/06 05:22:08;;;;;;;23.27;12.55;;;;;;;14.36;55.25;101937.89;1786885;80;21020;-55
2021/09/06 05:24:37;;;;;;;13.62;7.70;;;;;;;14.47;54.94;101947.85;1764778;80;21834;-55
2021/09/06 05:27:05;;;;;;;17.95;7.97;;;;;;;14.54;54.34;101952.59;1768744;80;21040;-56
2021/09/06 05:29:32;;;;;;;18.42;7.72;;;;;;;14.64;54.02;101955.87;1786322;80;21031;-56
2021/09/06 05:32:00;;;;;;;16.17;8.08;;;;;;;14.73;53.64;101955.63;1787546;80;21599;-56
2021/09/06 05:34:27;;;;;;;19.12;6.62;;;;;;;14.78;53.83;101953.64;1788172;78;21072;-55
2021/09/06 05:36:54;;;;;;;20.50;7.83;;;;;;;14.91;53.23;101952.75;1784243;80;21500;-54
2021/09/06 05:39:21;;;;;;;18.90;7.92;;;;;;;15.03;53.04;101953.70;1787125;80;21083;-55
2021/09/06 05:41:53;;;;;;;23.18;7.05;;;;;;;15.13;53.00;101954.23;1787701;79;21013;-55
2021/09/06 05:44:20;;;;;;;15.08;5.95;;;;;;;15.26;52.80;101957.41;1785058;79;21051;-55
2021/09/06 05:46:49;;;;;;;29.92;9.38;;;;;;;15.40;52.64;101966.37;1783266;79;21555;-56
2021/09/06 05:49:16;;;;;;;24.75;7.03;;;;;;;15.54;51.75;101963.16;1788621;79;21845;-55
2021/09/06 05:51:43;;;;;;;11.88;5.20;;;;;;;15.61;51.76;101959.77;1776952;78;21063;-55
2021/09/06 05:54:21;;;;;;;17.00;6.08;;;;;;;15.73;51.41;101959.30;1787030;78;21068;-55
2021/09/06 05:56:48;;;;;;;18.30;5.62;;;;;;;15.95;51.58;101966.63;1785064;80;21413;-55
2021/09/06 05:59:17;;;;;;;20.23;5.47;;;;;;;16.41;50.81;101964.41;1785941;78;21497;-54
2021/09/06 06:01:44;;;;;;;26.70;6.42;;;;;;;17.09;49.77;101962.97;1785231;79;21106;-56
2021/09/06 06:04:11;;;;;;;14.93;4.53;;;;;;;17.82;48.52;101967.02;1785022;79;21056;-56
2021/09/06 06:06:40;;;;;;;22.42;6.87;;;;;;;18.54;47.30;101966.77;1783053;78;21587;-58
2021/09/06 06:09:08;;;;;;;18.73;5.62;;;;;;;19.50;45.36;101972.37;1782573;78;21033;-56
2021/09/06 06:11:38;;;;;;;25.88;8.40;;;;;;;20.53;43.43;101971.25;1773958;78;21414;-56
2021/09/06 06:14:09;;;;;;;33.38;12.00;;;;;;;21.44;41.00;101981.33;1769308;80;21442;-56
2021/09/06 06:16:37;;;;;;;18.65;6.78;;;;;;;21.78;39.69;101984.34;1781593;78;21064;-57
2021/09/06 06:19:06;;;;;;;15.30;5.40;;;;;;;22.00;38.92;101988.81;1750855;80;21032;-56
2021/09/06 06:21:36;;;;;;;21.40;5.50;;;;;;;22.19;38.34;101980.77;1782147;78;21363;-56
2021/09/06 06:24:18;;;;;;;32.63;5.17;;;;;;;22.36;38.02;101985.16;1780486;78;21695;-57
2021/09/06 06:26:46;;;;;;;15.38;4.78;;;;;;;22.19;38.07;101990.33;1786086;79;21496;-56
2021/09/06 06:29:14;;;;;;;7.97;4.80;;;;;;;21.90;38.29;101991.73;1783033;79;21033;-57
2021/09/06 06:32:01;;;;;;;10.55;4.35;;;;;;;21.43;39.03;101995.05;1782230;79;21028;-56
2021/09/06 06:34:29;;;;;;;7.83;4.17;;;;;;;20.80;40.51;101988.84;1780793;78;21539;-57
2021/09/06 06:36:56;;;;;;;11.57;4.62;;;;;;;20.46;41.80;101998.45;1779269;78;21431;-57
2021/09/06 06:39:25;;;;;;;8.83;3.62;;;;;;;20.22;42.84;102000.71;1781465;78;21126;-58
2021/09/06 06:41:54;;;;;;;10.18;3.60;;;;;;;20.16;43.23;102010.09;1784026;78;21067;-57
2021/09/06 06:44:22;;;;;;;15.05;3.30;;;;;;;20.14;43.57;102007.95;1784600;79;21071;-56
2021/09/06 06:46:50;;;;;;;11.83;3.40;;;;;;;20.08;44.75;102012.38;1781232;78;21111;-56
2021/09/06 06:49:17;;;;;;;9.33;3.08;;;;;;;20.06;45.37;102008.86;1781114;78;21052;-56
2021/09/06 06:51:45;;;;;;;17.10;3.27;;;;;;;20.09;45.00;102018.22;1785590;78;21057;-57
2021/09/06 06:56:59;;;;;;;8.20;2.98;;;;;;;20.01;44.60;102020.00;1783666;78;22216;-57
2021/09/06 06:59:26;;;;;;;10.05;3.35;;;;;;;19.93;44.82;102014.97;1782983;77;21603;-57
2021/09/06 07:01:54;;;;;;;9.63;3.40;;;;;;;19.97;45.00;102022.00;1769899;79;21090;-57
2021/09/06 07:04:23;;;;;;;12.07;3.87;;;;;;;20.01;45.35;102022.72;1780462;79;21455;-57
2021/09/06 07:06:52;;;;;;;10.63;3.22;;;;;;;19.96;45.40;102024.83;1772026;79;21095;-56
2021/09/06 07:09:19;;;;;;;12.18;3.55;;;;;;;19.90;44.92;102027.36;1773134;79;21040;-56
2021/09/06 07:11:47;;;;;;;8.03;3.15;;;;;;;19.76;44.96;102020.81;1762504;79;21537;-56
2021/09/06 07:14:14;;;;;;;7.28;2.95;;;;;;;19.70;45.69;102018.42;1769992;78;21742;-59
2021/09/06 07:16:42;;;;;;;6.97;2.80;;;;;;;19.70;45.41;102025.23;1769795;79;21960;-56
2021/09/06 07:19:11;;;;;;;9.15;3.80;;;;;;;19.72;45.16;102034.19;1767233;79;21074;-57
2021/09/06 07:21:40;;;;;;;12.82;3.47;;;;;;;19.57;45.73;102030.95;1764654;78;20918;-56
2021/09/06 07:24:08;;;;;;;11.25;4.95;;;;;;;19.35;47.19;102032.06;1772251;79;21060;-57
2021/09/06 07:26:36;;;;;;;9.38;3.27;;;;;;;19.17;47.59;102033.41;1767288;79;20949;-57
2021/09/06 07:29:03;;;;;;;8.93;3.77;;;;;;;19.05;48.22;102029.95;1765705;78;21767;-56
2021/09/06 07:31:31;;;;;;;13.80;3.45;;;;;;;19.03;48.55;102019.63;1764214;79;21100;-57
2021/09/06 07:33:59;;;;;;;15.75;3.83;;;;;;;19.14;48.81;102026.77;1764431;79;21123;-56
2021/09/06 07:36:27;;;;;;;9.13;3.05;;;;;;;19.20;48.88;102022.84;1763773;79;21069;-56
2021/09/06 07:38:55;;;;;;;13.15;3.45;;;;;;;19.23;48.85;102028.61;1762907;79;20886;-57
2021/09/06 07:41:22;;;;;;;6.80;3.17;;;;;;;19.23;48.93;102033.58;1771265;79;21111;-57
2021/09/06 07:43:49;;;;;;;12.00;3.10;;;;;;;19.15;49.26;102035.33;1769373;79;21555;-56
2021/09/06 07:46:16;;;;;;;6.05;2.70;;;;;;;19.20;49.26;102024.70;1768343;79;21823;-56
2021/09/06 07:48:45;;;;;;;9.45;3.00;;;;;;;19.25;49.18;102033.48;1764197;79;21076;-56
2021/09/06 07:51:12;;;;;;;11.22;3.52;;;;;;;19.26;48.90;102035.25;1761993;79;21111;-56
2021/09/06 07:53:39;;;;;;;12.63;2.98;;;;;;;19.14;49.49;102025.42;1764256;79;21185;-57
2021/09/06 07:56:06;;;;;;;5.05;2.90;;;;;;;19.09;50.10;102032.91;1767556;79;21506;-57
2021/09/06 07:58:33;;;;;;;8.78;2.60;;;;;;;19.13;50.02;102033.17;1767407;79;21056;-56
2021/09/06 08:01:00;;;;;;;12.75;3.00;;;;;;;19.20;49.76;102029.63;1777527;78;21367;-56
2021/09/06 08:03:28;;;;;;;6.03;2.33;;;;;;;19.24;49.69;102045.32;1780643;78;21075;-59
2021/09/06 08:05:55;;;;;;;6.45;2.70;;;;;;;19.25;49.69;102036.20;1776099;78;21135;-57
2021/09/06 08:08:23;;;;;;;9.38;2.83;;;;;;;19.24;49.77;102035.34;1779826;78;20920;-57
2021/09/06 08:10:50;;;;;;;7.00;3.02;;;;;;;19.20;49.82;102036.43;1782195;78;20955;-58
2021/09/06 08:13:20;;;;;;;6.28;2.65;;;;;;;19.01;50.49;102034.67;1786290;78;20968;-56
2021/09/06 08:15:47;;;;;;;11.83;2.98;;;;;;;18.97;50.04;102030.79;1784373;78;21093;-57
2021/09/06 08:18:14;;;;;;;8.60;2.58;;;;;;;19.05;50.29;102029.95;1784390;78;21425;-57
2021/09/06 08:20:43;;;;;;;6.42;2.35;;;;;;;19.18;49.85;102041.97;1780619;78;21072;-58
2021/09/06 08:23:12;;;;;;;6.30;2.33;;;;;;;19.22;48.77;102040.45;1782352;78;21075;-57
2021/09/06 08:25:40;;;;;;;5.53;2.50;;;;;;;19.25;48.54;102041.64;1782657;78;21450;-57
2021/09/06 08:28:07;;;;;;;9.10;2.25;;;;;;;19.30;48.59;102034.13;1777013;78;21004;-57
2021/09/06 08:30:34;;;;;;;15.30;2.12;;;;;;;19.41;46.95;102039.90;1756170;78;21636;-58
2021/09/06 08:33:03;;;;;;;8.63;2.30;;;;;;;19.48;46.74;102045.91;1782720;78;21527;-58
2021/09/06 08:35:35;;;;;;;7.80;2.10;;;;;;;19.51;46.28;102039.41;1784793;78;21437;-56
2021/09/06 08:38:06;;;;;;;12.23;2.80;;;;;;;19.52;46.63;102033.00;1764109;79;22445;-56
2021/09/06 08:40:35;;;;;;;18.73;3.12;;;;;;;19.51;46.20;102032.14;1782634;78;21115;-57
2021/09/06 08:43:05;;;;;;;9.73;2.30;;;;;;;19.61;45.71;102034.76;1764115;79;21205;-57
2021/09/06 08:45:35;;;;;;;19.10;2.52;;;;;;;19.65;46.28;102036.84;1784791;78;21032;-57
2021/09/06 08:48:03;;;;;;;16.23;2.17;;;;;;;19.66;46.24;102029.55;1781894;78;21172;-57
2021/09/06 08:50:31;;;;;;;10.00;2.30;;;;;;;19.75;45.41;102028.58;1777840;78;21027;-58
2021/09/06 08:52:59;;;;;;;9.05;2.70;;;;;;;19.80;45.04;102032.91;1782902;78;21139;-57
2021/09/06 08:55:27;;;;;;;12.47;2.40;;;;;;;19.82;44.42;102035.07;1779034;78;21085;-57
2021/09/06 08:57:54;;;;;;;10.53;1.82;;;;;;;19.83;43.36;102035.47;1779099;78;21071;-58
2021/09/06 09:00:29;;;;;;;16.00;2.45;;;;;;;19.76;42.92;102028.97;1776199;78;21545;-58
2021/09/06 09:03:14;;;;;;;12.93;2.10;;;;;;;19.76;41.57;102030.33;1765172;79;21304;-59
2021/09/06 09:06:04;;;;;;;5.92;1.70;;;;;;;19.71;40.46;102036.51;1764178;79;21142;-58
2021/09/06 09:08:51;;;;;;;6.37;1.65;;;;;;;19.67;40.03;102037.64;1768551;79;21853;-60
2021/09/06 09:11:29;;;;;;;11.80;1.87;;;;;;;19.69;39.48;102031.63;1764515;79;21128;-59
2021/09/06 09:14:17;;;;;;;11.97;2.17;;;;;;;19.74;39.97;102036.34;1743256;79;21428;-57
2021/09/06 09:16:57;;;;;;;8.48;2.05;;;;;;;19.68;40.46;102035.81;1766419;79;21076;-58
2021/09/06 09:19:42;;;;;;;5.30;1.90;;;;;;;19.65;40.08;102031.41;1763354;79;21053;-59
2021/09/06 09:22:33;;;;;;;7.20;1.95;;;;;;;19.68;40.34;102023.08;1768773;79;21527;-58
2021/09/06 09:25:12;;;;;;;8.30;1.72;;;;;;;19.68;41.13;102027.16;1766516;79;21049;-57
2021/09/06 09:27:46;;;;;;;8.63;1.90;;;;;;;19.71;39.68;102036.51;1747588;79;21062;-58
2021/09/06 09:30:30;;;;;;;8.50;2.17;;;;;;;19.71;39.68;102028.34;1766615;79;21072;-58
2021/09/06 09:33:18;;;;;;;4.22;1.70;;;;;;;19.69;40.95;102032.99;1760096;79;21078;-60
2021/09/06 09:35:59;;;;;;;4.10;1.47;;;;;;;19.64;39.84;102028.28;1762395;79;21286;-57
2021/09/06 09:38:35;;;;;;;9.65;1.87;;;;;;;19.64;40.73;102019.23;1763502;79;21041;-59
2021/09/06 09:41:04;;;;;;;13.22;2.50;;;;;;;19.71;40.71;102020.68;1761077;78;21016;-62
2021/09/06 09:43:33;;;;;;;6.85;1.90;;;;;;;19.79;40.00;102021.64;1749483;79;21097;-64
2021/09/06 09:46:04;;;;;;;9.98;1.87;;;;;;;19.81;40.34;102023.79;1765145;79;21483;-64
2021/09/06 09:48:35;;;;;;;16.15;2.40;;;;;;;19.86;39.41;102017.61;1763274;79;21145;-62
2021/09/06 09:51:03;;;;;;;7.62;2.25;;;;;;;19.90;38.84;102023.28;1762640;79;21025;-61
2021/09/06 09:53:32;;;;;;;4.62;1.70;;;;;;;19.95;38.39;102018.98;1759148;79;22279;-62
2021/09/06 09:56:02;;;;;;;5.60;1.85;;;;;;;20.01;38.33;102013.19;1762844;79;21246;-60
2021/09/06 09:58:30;;;;;;;4.92;1.70;;;;;;;20.07;39.13;102018.79;1765987;79;20906;-66
2021/09/06 10:00:59;;;;;;;6.25;1.70;;;;;;;20.09;38.90;102021.80;1765178;79;21359;-63
2021/09/06 10:03:26;;;;;;;4.83;1.70;;;;;;;20.09;38.46;102010.05;1740705;78;20964;-58
2021/09/06 10:05:53;;;;;;;5.15;1.50;;;;;;;20.09;38.77;102010.91;1779860;78;21680;-59
2021/09/06 10:08:21;;;;;;;3.95;1.42;;;;;;;20.16;38.47;102012.36;1777206;78;21083;-58
2021/09/06 10:10:50;;;;;;;2.77;1.70;;;;;;;20.18;38.33;102008.16;1776685;79;22080;-58
2021/09/06 10:13:18;;;;;;;5.15;1.52;;;;;;;20.19;37.74;102014.00;1772490;78;21340;-58
2021/09/06 10:16:01;;;;;;;2.70;1.45;;;;;;;20.13;36.70;102009.81;1786934;79;20950;-57
2021/09/06 10:18:40;;;;;;;3.97;1.77;;;;;;;20.00;36.16;102008.22;1778134;79;20916;-58
2021/09/06 10:21:16;;;;;;;8.35;1.70;;;;;;;19.94;36.21;102009.92;1777422;78;20908;-57
2021/09/06 10:23:47;;;;;;;3.60;1.70;;;;;;;19.90;37.22;101996.95;1775318;79;21390;-57
2021/09/06 10:26:15;;;;;;;4.17;1.40;;;;;;;19.95;36.66;102001.30;1777503;79;21325;-59
2021/09/06 10:28:51;;;;;;;2.17;1.20;;;;;;;20.00;37.55;102000.05;1778276;78;21071;-57
2021/09/06 10:31:20;;;;;;;4.28;1.50;;;;;;;19.99;37.85;102005.09;1777463;79;21110;-58
2021/09/06 10:34:00;;;;;;;3.22;1.30;;;;;;;19.95;38.60;101998.07;1776385;79;21626;-56
2021/09/06 10:36:29;;;;;;;3.17;1.32;;;;;;;19.94;38.79;101999.03;1774466;79;20970;-59
2021/09/06 10:39:08;;;;;;;2.45;1.20;;;;;;;19.93;38.60;102006.80;1780141;78;21474;-57
2021/09/06 10:42:27;;;;;;;2.30;1.40;;;;;;;19.94;37.22;102001.76;1772891;79;21429;-58
2021/09/06 10:44:59;;;;;;;5.03;1.75;;;;;;;19.99;38.88;102001.52;1772812;79;21521;-58
2021/09/06 10:47:39;;;;;;;5.85;1.95;;;;;;;19.94;39.04;101996.31;1775005;79;21534;-58
2021/09/06 10:50:24;;;;;;;3.37;1.57;;;;;;;19.99;38.58;101997.43;1777276;78;21613;-58
2021/09/06 10:55:22;;;;;;;2.87;1.30;;;;;;;20.01;37.84;101992.31;1774967;78;21674;-57
2021/09/06 11:05:57;;;;;;;2.17;1.25;;;;;;;19.98;37.74;101987.01;1777087;78;22335;-57
2021/09/06 11:13:47;;;;;;;2.05;1.30;;;;;;;19.98;37.30;101986.15;1774082;78;21060;-57
2021/09/06 11:19:29;;;;;;;1.45;1.12;;;;;;;19.94;37.20;101988.15;1774648;78;21060;-57
2021/09/06 11:22:09;;;;;;;2.30;1.50;;;;;;;19.89;37.01;101987.50;1780281;78;21568;-56
2021/09/06 11:24:57;;;;;;;4.03;1.60;;;;;;;19.89;36.59;101991.58;1776662;78;21482;-57
2021/09/06 11:27:36;;;;;;;1.77;1.45;;;;;;;19.85;36.29;101989.50;1763796;79;21063;-57
2021/09/06 11:32:47;;;;;;;2.42;1.50;;;;;;;19.87;36.54;101981.27;1773584;78;21126;-59
2021/09/06 11:35:34;;;;;;;2.67;1.60;;;;;;;19.92;35.14;101984.64;1774456;79;21107;-59
2021/09/06 11:38:02;;;;;;;2.70;1.40;;;;;;;19.94;34.50;101982.70;1774809;79;21599;-58
2021/09/06 11:40:29;;;;;;;2.90;1.70;;;;;;;19.98;34.97;101980.20;1780819;78;21104;-58
2021/09/06 11:42:57;;;;;;;4.12;1.50;;;;;;;20.00;35.02;101979.63;1775414;78;21115;-58
2021/09/06 11:45:25;;;;;;;5.42;1.40;;;;;;;19.98;35.74;101978.84;1774810;78;21122;-58
2021/09/06 11:47:52;;;;;;;4.28;1.45;;;;;;;19.99;36.28;101979.23;1775046;78;21767;-65
2021/09/06 11:50:21;;;;;;;3.50;1.37;;;;;;;20.02;36.19;101964.12;1771762;78;21060;-65
2021/09/06 11:55:56;;;;;;;2.72;1.60;;;;;;;20.13;34.89;101970.80;1768668;79;21079;-66
2021/09/06 11:58:29;;;;;;;5.60;1.55;;;;;;;20.09;35.13;101958.33;1768455;79;21222;-67